Hovedside
METAR-TAF:

METAR-TAF

Lufthavner :

Västerås, Sverige

Västerås lufthavn

breddegrad: 59-35N, lengdegrad: 016-38E, høyde over havet: 6 m

Gjeldene værobservasjon

Denne rapporten ble laget for 35 minutter siden, klokken 21:20 UTC
Vind 3 kt fra Øst-sørøst
Temperatur 15°C
Luftfuktighet 94%
Trykk 1009 hPa
Sikt: 5000 m
dis

METAR: ESOW 182120Z AUTO 12003KT 5000 BR NCD 15/14 Q1009

Tid: 23:55 (21:55 UTC)

Varsel

Denne rapporten ble laget for 7 timer og 25 minutter siden, klokken 14:30 UTC
Varsel gyldig fra 18. klokken 15 UTC til 18. klokken 17 UTC
Vind 8 kt fra Sør-sørvest
Sikt 10 km eller mer
Spredte skyer i en høyde av 2000 ft
Brutte skyer i en høyde av 3500 ft

TAF: ESOW 181430Z 1815/1817 20008KT 9999 SCT020 BKN035

Værobservasjoner og værvarsel for over 4000 flyplasser (METAR- og TAF-rapporter).

Tilgjengelige stasjoner er representert av de røde og gule prikkene på kartet.

Hold musepekeren over prikken for å se navnet på stasjonen.

Klikk så for å se værobservasjoner og -varsler.

For å forandre kartet kan du klikke på den grønne knappen med svart kryss for å zoome inn, på den grønne knappen med strek for å zoome ut, eller på de grønne pilene for å se tilstøtende kart.


METAR-TAF: